Flight Number: EUR2442 Duration: 6:00
Departure: Dakar Int'l Airport (GOOY) at 08:00 Distance: 2481 Nm
Arrival: Munich Int'l (EDDM) at 14:00 Equipment: B777

Weather Information
Dakar / Yoff, Senegal (GOOY) 14-44N 017-30W 24M Nov 18, 2017 - 06:30 AM EST / 2017.11.18 1130 UTC
Wind: from the NE (040 degrees) at 12 MPH (10 KT):0
Visibility: greater than 7 mile(s):0 Temperature: 84 F (29 C) Dew Point: 46 F (8 C) Relative Humidity: 26% Pressure (altimeter): 29.91 in. Hg (1013 hPa)
ob: GOOY 181130Z 04010KT CAVOK 29/08 Q1013 NOSIG cycle: 11
Sunrise: 07:15 Sunset: 18:35 (UTC)

Munchen, Germany (EDDM) 48-21N 011-47E Nov 18, 2017 - 06:50 AM EST / 2017.11.18 1150 UTC
Wind: from the W (260 degrees) at 8 MPH (7 KT):0
Visibility: 4 mile(s):0
Sky conditions: mostly cloudy Temperature: 39 F (4 C) Dew Point: 35 F (2 C) Relative Humidity: 86% Pressure (altimeter): 30.15 in. Hg (1021 hPa)
ob: EDDM 181150Z 26007KT 8000 BKN007 BKN030 04/02 Q1021 BECMG BKN015 cycle: 12
Sunrise: 06:29 Sunset: 15:26 (UTC)

TAF:2017/11/18 12:27 TAF EDDM 181100Z 1812/1918 24010KT 8000 SCT006 BKN010 PROB30 TEMPO 1812/1813 BKN006 BECMG 1813/1814 BKN015 TEMPO 1902/1908 4000 RASN BKN010 BECMG 1906/1908 26015G25KT TEMPO 1908/1912 2500 SHSN BKN012TCU BECMG 1916/1918 26012KT

Previous Pireps for this route
Date Aircraft Flight time Fuel used Landing rate On time
2016-03-10B77706.11109136-84Yes
2016-04-10B77705.05106121-224Yes
(pireps marked green are flown by you)

Route map